Latest Weather Forecast - Saturday 17th September 2022(6 pm)

Forecast Period: 

6 pm 17th September, 2022 to 6 am 18th September,2022

Synopsis:
Feeder bands associated with Tropical Storm Fiona, presently located over the Northern Leeward Islands are affecting the islands
Forecast:
Generally cloudy and breezy at times with pockets of moderate to heavy showers and isolated thunderstorms

Weather Advisory:

Residents and motorists in areas prone to flash-flooding, or near rivers and streams should remain alert

Winds:

SE at 15 - 35 km/h (9-22 mph) with higher gust near showers
Sea Conditions:
Moderate in open water with swells from 1.5 m to 2.5 m

Marine Advisory:

Small craft operators and sea bathers should exercise caution for breaking waves and rip currents especially along eastern coasts

Upcoming Tides:
High:  12:52 am  11:53 am
Low: 

7:24 pm(17th)

 05:12 am

Aviation WX

[Source: ADDS]
METAR
TVSA 011900Z 00000KT 9999 BKN018 30/26 Q1013 NOSIG =
TVSA 011700Z 0118/0218 10007KT 9999 SCT018
TAF
TVSA 011700Z 0118/0218 10007KT 9999 SCT018 =
SR / SS: 09:53 / 21:54 UTC (Sunrise Sunset 2022-10-01)